Time;durP1;ratioP1;P1;durP2;ratioP2;P2;SDS_P1;SDS_P2;PMS_P1;PMS_P2;Temp;Humidity;BMP_temperature;BMP_pressure;BME280_temperature;BME280_humidity;BME280_pressure;Samples;Min_cycle;Max_cycle;Signal;HPM_P1;HPM_P2
2021/08/05 00:01:50;;;;;;;6.22;3.83;;;;;;;19.65;68.47;100615.56;5078051;28;20059;-66
2021/08/05 00:04:18;;;;;;;6.35;3.53;;;;;;;19.64;68.44;100623.16;5095471;28;20055;-66
2021/08/05 00:06:45;;;;;;;8.48;3.90;;;;;;;19.74;68.24;100610.50;5095554;28;20063;-66
2021/08/05 00:09:12;;;;;;;6.57;4.07;;;;;;;19.68;68.45;100606.44;5095706;28;20067;-67
2021/08/05 00:11:40;;;;;;;7.07;3.78;;;;;;;19.71;68.25;100609.28;5095916;28;20056;-66
2021/08/05 00:14:07;;;;;;;7.00;3.90;;;;;;;19.56;69.40;100598.25;5095684;28;20055;-66
2021/08/05 00:16:34;;;;;;;7.50;4.15;;;;;;;19.82;68.18;100599.03;5077685;28;20051;-66
2021/08/05 00:19:02;;;;;;;5.97;4.10;;;;;;;19.85;68.45;100595.50;5094639;28;20052;-67
2021/08/05 00:21:30;;;;;;;8.02;4.47;;;;;;;19.93;68.15;100600.00;5096057;28;20040;-66
2021/08/05 00:23:57;;;;;;;9.93;4.10;;;;;;;19.80;68.55;100595.84;5095501;28;20052;-67
2021/08/05 00:26:24;;;;;;;9.45;4.05;;;;;;;19.71;68.23;100595.31;5095363;28;20062;-66
2021/08/05 00:28:52;;;;;;;6.88;4.25;;;;;;;19.58;69.50;100596.69;5095153;28;20382;-66
2021/08/05 00:31:19;;;;;;;6.97;4.10;;;;;;;19.50;69.46;100583.00;5095372;28;20411;-67
2021/08/05 00:33:46;;;;;;;7.47;4.13;;;;;;;19.56;69.58;100587.09;5076780;28;20048;-67
2021/08/05 00:36:14;;;;;;;6.63;4.25;;;;;;;19.51;69.43;100590.22;5076825;28;20051;-67
2021/08/05 00:38:41;;;;;;;7.45;4.35;;;;;;;19.54;69.57;100589.44;5076620;28;20122;-67
2021/08/05 00:41:08;;;;;;;7.57;4.45;;;;;;;19.50;68.86;100589.41;5076937;28;20048;-67
2021/08/05 00:43:36;;;;;;;6.50;4.45;;;;;;;19.48;68.88;100588.16;5094998;28;20482;-67
2021/08/05 00:46:03;;;;;;;8.15;3.78;;;;;;;19.61;68.17;100586.75;5094199;28;20059;-67
2021/08/05 00:48:31;;;;;;;5.97;4.20;;;;;;;19.51;68.47;100596.59;5075395;28;20040;-66
2021/08/05 00:51:01;;;;;;;7.40;4.30;;;;;;;19.50;68.47;100583.81;5094782;28;20059;-66
2021/08/05 00:53:29;;;;;;;6.75;3.97;;;;;;;19.54;68.46;100583.84;5060695;28;20052;-67
2021/08/05 00:55:57;;;;;;;7.40;4.28;;;;;;;19.58;68.47;100582.72;5076513;28;20534;-66
2021/08/05 00:58:24;;;;;;;6.10;4.22;;;;;;;19.44;69.00;100576.91;5094811;28;20047;-67
2021/08/05 01:00:55;;;;;;;6.25;3.88;;;;;;;19.75;68.29;100573.00;5076628;28;20055;-66
2021/08/05 01:03:26;;;;;;;7.32;4.28;;;;;;;19.33;67.99;100575.16;5076409;28;20516;-66
2021/08/05 01:06:32;;;;;;;7.07;4.13;;;;;;;18.79;69.82;100581.00;5076353;28;20063;-66
2021/08/05 01:09:10;;;;;;;8.15;4.55;;;;;;;18.89;69.37;100583.16;5046713;28;20048;-66
2021/08/05 01:11:43;;;;;;;7.10;4.43;;;;;;;18.88;69.16;100570.41;5076651;28;20052;-65
2021/08/05 01:14:13;;;;;;;8.90;4.43;;;;;;;18.96;68.90;100574.91;5061986;28;20518;-66
2021/08/05 01:16:43;;;;;;;8.38;3.90;;;;;;;18.89;68.78;100575.59;5059632;28;20058;-66
2021/08/05 01:19:18;;;;;;;;;;;;;;;18.87;68.66;100579.94;5076282;28;20052;-66
2021/08/05 01:21:56;;;;;;;7.63;4.05;;;;;;;19.04;68.42;100574.66;5059686;28;19920;-65
2021/08/05 01:24:24;;;;;;;10.00;4.63;;;;;;;19.00;68.22;100573.78;5076187;28;20054;-66
2021/08/05 01:26:57;;;;;;;9.05;4.07;;;;;;;19.07;68.08;100576.69;5042954;28;20062;-66
2021/08/05 01:29:27;;;;;;;8.68;4.68;;;;;;;18.91;68.42;100575.22;5059886;28;20063;-66
2021/08/05 01:31:55;;;;;;;8.85;4.20;;;;;;;19.03;68.37;100575.03;5075687;28;20058;-66
2021/08/05 01:34:23;;;;;;;9.40;4.65;;;;;;;18.97;68.25;100579.31;5059220;28;20047;-65
2021/08/05 01:36:52;;;;;;;8.83;4.90;;;;;;;18.89;68.59;100578.41;5059415;28;20043;-66
2021/08/05 01:39:20;;;;;;;7.28;4.65;;;;;;;18.84;68.63;100569.53;5094116;28;20070;-66
2021/08/05 01:41:48;;;;;;;6.45;4.25;;;;;;;18.73;69.35;100568.53;5059358;28;20058;-67
2021/08/05 01:44:17;;;;;;;6.93;4.47;;;;;;;18.88;69.24;100562.03;5075311;28;20070;-67
2021/08/05 01:46:45;;;;;;;8.07;4.70;;;;;;;18.86;69.02;100562.38;5074649;28;20056;-66
2021/08/05 01:49:14;;;;;;;7.88;5.40;;;;;;;18.80;68.71;100560.28;5093490;28;20398;-66
2021/08/05 01:51:41;;;;;;;9.23;4.80;;;;;;;18.55;69.94;100545.09;5075560;28;20040;-66
2021/08/05 01:54:10;;;;;;;8.32;4.70;;;;;;;18.19;71.43;100546.38;5093562;28;20675;-66
2021/08/05 01:56:38;;;;;;;8.30;5.30;;;;;;;18.05;72.51;100548.88;5075353;28;20356;-64
2021/08/05 01:59:05;;;;;;;13.95;5.30;;;;;;;18.30;71.82;100552.16;5075214;28;20148;-66
2021/08/05 02:01:35;;;;;;;9.20;5.03;;;;;;;18.52;71.01;100545.81;5075367;28;20055;-66
2021/08/05 02:04:08;;;;;;;12.53;5.37;;;;;;;18.60;70.67;100542.00;5058719;28;20048;-66
2021/08/05 02:06:48;;;;;;;8.23;5.10;;;;;;;18.60;70.49;100550.38;5092404;28;20044;-66
2021/08/05 02:09:22;;;;;;;9.25;4.88;;;;;;;18.49;70.58;100543.78;5075425;28;20051;-66
2021/08/05 02:11:50;;;;;;;8.50;5.22;;;;;;;18.58;70.67;100542.38;5075556;28;20054;-66
2021/08/05 02:14:20;;;;;;;8.50;5.43;;;;;;;18.46;71.08;100533.38;5057941;28;20040;-66
2021/08/05 02:16:49;;;;;;;11.27;4.85;;;;;;;18.45;71.34;100531.75;5054485;28;20067;-66
2021/08/05 02:19:22;;;;;;;9.93;4.60;;;;;;;18.56;71.08;100532.75;5039019;28;20056;-66
2021/08/05 02:21:50;;;;;;;8.75;4.90;;;;;;;18.71;70.72;100534.59;5038827;28;20063;-66
2021/08/05 02:24:18;;;;;;;9.43;4.80;;;;;;;19.03;69.29;100525.59;5053986;28;20052;-66
2021/08/05 02:26:46;;;;;;;7.43;4.90;;;;;;;19.00;69.26;100525.53;5054708;28;20052;-67
2021/08/05 02:29:16;;;;;;;8.15;4.82;;;;;;;18.88;69.58;100536.91;5038800;28;20052;-67
2021/08/05 02:31:43;;;;;;;10.27;5.07;;;;;;;18.52;71.03;100540.25;5055006;28;20096;-67
2021/08/05 02:34:12;;;;;;;6.75;4.80;;;;;;;18.55;71.34;100531.16;5038755;28;20066;-66
2021/08/05 02:36:39;;;;;;;8.23;5.00;;;;;;;18.72;70.81;100523.09;5038456;28;20151;-65
2021/08/05 02:39:06;;;;;;;11.15;5.57;;;;;;;18.61;70.71;100524.06;5038612;28;20694;-66
2021/08/05 02:41:33;;;;;;;8.27;5.28;;;;;;;18.46;71.65;100523.00;5073204;28;20040;-66
2021/08/05 02:44:01;;;;;;;10.40;5.03;;;;;;;18.46;72.15;100520.22;5055083;28;20140;-67
2021/08/05 02:46:29;;;;;;;12.20;5.10;;;;;;;18.67;71.20;100528.19;5054869;28;20049;-67
2021/08/05 02:48:58;;;;;;;8.23;4.78;;;;;;;18.72;71.00;100525.06;5038451;28;20155;-67
2021/08/05 02:51:26;;;;;;;9.63;4.80;;;;;;;18.92;70.10;100509.84;5054698;28;20079;-66
2021/08/05 02:53:54;;;;;;;8.27;4.80;;;;;;;18.81;70.53;100523.63;5038435;28;20059;-66
2021/08/05 02:56:22;;;;;;;8.82;5.30;;;;;;;18.78;70.82;100520.78;5021936;28;20057;-66
2021/08/05 02:58:50;;;;;;;12.85;5.00;;;;;;;18.77;70.75;100517.19;5037739;28;20103;-65
2021/08/05 03:01:19;;;;;;;8.98;5.80;;;;;;;18.73;70.96;100519.13;5054957;28;20051;-67
2021/08/05 03:03:51;;;;;;;6.80;4.82;;;;;;;18.87;70.68;100510.16;5038370;28;20063;-66
2021/08/05 03:06:26;;;;;;;8.98;5.45;;;;;;;18.69;71.13;100512.66;5054622;28;20075;-65
2021/08/05 03:08:54;;;;;;;7.38;5.32;;;;;;;18.75;71.33;100502.81;5054835;28;20056;-66
2021/08/05 03:11:22;;;;;;;12.20;5.57;;;;;;;18.91;70.35;100499.88;5071217;28;20040;-66
2021/08/05 03:13:50;;;;;;;10.82;5.40;;;;;;;18.60;71.42;100506.50;5086290;28;20048;-66
2021/08/05 03:16:17;;;;;;;10.02;5.57;;;;;;;18.55;71.94;100504.03;5092274;28;20079;-64
2021/08/05 03:18:45;;;;;;;10.82;5.82;;;;;;;18.63;71.90;100516.13;5092616;28;20052;-65
2021/08/05 03:21:12;;;;;;;9.48;5.80;;;;;;;18.69;71.37;100503.50;5092898;28;20055;-66
2021/08/05 03:23:39;;;;;;;9.05;5.50;;;;;;;18.79;71.38;100491.69;5074958;28;20052;-66
2021/08/05 03:26:07;;;;;;;10.43;5.32;;;;;;;18.61;71.71;100496.16;5092867;28;20052;-67
2021/08/05 03:28:34;;;;;;;7.63;5.20;;;;;;;18.68;71.42;100487.91;5092920;28;20048;-67
2021/08/05 03:31:02;;;;;;;10.45;6.13;;;;;;;18.60;71.82;100494.56;5092686;28;20041;-67
2021/08/05 03:33:30;;;;;;;8.35;5.95;;;;;;;18.22;73.39;100481.50;5092617;28;20055;-67
2021/08/05 03:35:57;;;;;;;11.32;6.13;;;;;;;18.07;74.16;100481.59;5093142;28;20044;-65
2021/08/05 03:38:24;;;;;;;10.85;6.00;;;;;;;18.36;72.83;100487.31;5096510;28;20044;-66
2021/08/05 03:40:55;;;;;;;9.80;6.20;;;;;;;17.91;74.71;100484.47;5096369;28;20533;-67
2021/08/05 03:43:23;;;;;;;12.65;5.90;;;;;;;18.03;74.70;100477.97;5096270;28;20051;-66
2021/08/05 03:45:50;;;;;;;7.53;5.28;;;;;;;18.41;73.68;100491.84;5095262;28;20056;-66
2021/08/05 03:48:18;;;;;;;10.30;6.25;;;;;;;18.23;73.87;100488.69;5095996;28;20063;-66
2021/08/05 03:50:45;;;;;;;14.27;6.30;;;;;;;18.40;73.13;100487.41;5084021;28;20048;-65
2021/08/05 03:53:12;;;;;;;7.55;5.72;;;;;;;18.05;74.33;100492.31;5075690;28;20060;-66
2021/08/05 03:55:40;;;;;;;9.65;5.90;;;;;;;18.11;74.64;100490.84;5073025;28;20052;-66
2021/08/05 03:58:09;;;;;;;10.63;5.72;;;;;;;18.45;73.70;100484.31;5057174;28;20056;-62
2021/08/05 04:00:37;;;;;;;10.82;6.22;;;;;;;18.43;73.31;100476.34;5074957;28;20052;-62
2021/08/05 04:03:05;;;;;;;9.07;6.10;;;;;;;18.41;72.78;100484.25;5074208;28;20538;-60
2021/08/05 04:05:32;;;;;;;8.55;5.97;;;;;;;18.32;73.77;100472.53;5075427;28;20064;-66
2021/08/05 04:08:00;;;;;;;11.25;6.35;;;;;;;18.26;73.78;100473.19;5057871;28;20411;-66
2021/08/05 04:10:27;;;;;;;11.57;6.85;;;;;;;18.40;73.03;100474.28;5075547;28;20044;-65
2021/08/05 04:12:54;;;;;;;10.05;6.45;;;;;;;18.57;72.88;100484.94;5063257;28;20058;-66
2021/08/05 04:15:22;;;;;;;9.93;6.70;;;;;;;18.53;72.76;100483.28;5095267;28;20067;-61
2021/08/05 04:17:49;;;;;;;13.55;6.13;;;;;;;18.37;73.43;100485.34;5095458;28;20044;-61
2021/08/05 04:20:18;;;;;;;13.15;6.65;;;;;;;18.45;73.09;100484.31;5095642;28;20055;-62
2021/08/05 04:22:46;;;;;;;13.10;6.80;;;;;;;18.28;73.57;100485.59;5077802;28;20056;-60
2021/08/05 04:25:13;;;;;;;10.05;6.15;;;;;;;18.18;74.41;100486.22;5095542;28;20048;-66
2021/08/05 04:27:41;;;;;;;8.93;6.45;;;;;;;18.26;74.06;100481.56;5095345;28;20052;-65
2021/08/05 04:30:12;;;;;;;11.90;6.95;;;;;;;18.39;73.97;100477.44;5060574;28;20059;-60
2021/08/05 04:32:40;;;;;;;16.13;6.55;;;;;;;18.48;73.32;100478.81;5076346;28;20431;-60
2021/08/05 04:35:09;;;;;;;13.23;6.60;;;;;;;18.57;72.91;100482.16;5076236;28;20076;-62
2021/08/05 04:37:52;;;;;;;15.40;7.00;;;;;;;18.44;72.87;100482.72;5095042;28;20441;-61
2021/08/05 04:40:21;;;;;;;10.93;7.07;;;;;;;18.51;72.34;100494.81;5095305;28;20399;-61
2021/08/05 04:42:48;;;;;;;14.35;6.63;;;;;;;18.55;72.29;100495.66;5077519;28;20067;-62
2021/08/05 04:45:21;;;;;;;10.10;6.63;;;;;;;18.59;72.34;100488.19;5095679;28;20403;-60
2021/08/05 04:48:15;;;;;;;9.63;7.00;;;;;;;18.48;72.33;100480.81;5094361;28;20051;-62
2021/08/05 04:50:45;;;;;;;11.80;6.90;;;;;;;18.45;72.68;100470.38;5091192;28;20438;-68
2021/08/05 04:53:16;;;;;;;13.70;6.38;;;;;;;18.40;72.97;100477.09;5095134;28;20058;-61
2021/08/05 04:55:44;;;;;;;12.68;7.03;;;;;;;18.40;72.90;100495.75;5076919;28;20510;-67
2021/08/05 04:58:12;;;;;;;14.73;6.60;;;;;;;18.63;72.41;100500.22;5076009;28;20072;-66
2021/08/05 05:00:41;;;;;;;10.60;6.50;;;;;;;18.61;72.49;100501.75;5094792;28;20075;-66
2021/08/05 05:03:09;;;;;;;11.70;6.18;;;;;;;18.58;72.23;100508.09;5094768;28;20371;-61
2021/08/05 05:05:37;;;;;;;9.13;5.75;;;;;;;18.44;72.90;100497.47;5093263;28;20101;-61
2021/08/05 05:08:15;;;;;;;10.85;6.25;;;;;;;18.48;73.33;100498.34;5059699;28;20395;-60
2021/08/05 05:10:42;;;;;;;8.18;5.60;;;;;;;18.51;73.10;100510.75;5094519;28;20379;-62
2021/08/05 05:13:10;;;;;;;9.68;5.38;;;;;;;18.55;73.00;100498.47;5086572;28;20056;-62
2021/08/05 05:15:38;;;;;;;9.48;6.05;;;;;;;18.57;72.73;100500.88;5073479;28;20052;-61
2021/08/05 05:18:05;;;;;;;13.02;6.30;;;;;;;18.36;73.57;100495.69;5039851;28;20557;-61
2021/08/05 05:20:33;;;;;;;12.70;6.35;;;;;;;18.34;73.23;100495.25;5073767;28;20450;-66
2021/08/05 05:23:01;;;;;;;10.20;6.00;;;;;;;18.30;73.13;100496.38;5074445;28;20052;-61
2021/08/05 05:25:29;;;;;;;10.88;6.72;;;;;;;18.27;73.28;100503.50;5074236;28;20041;-61
2021/08/05 05:27:56;;;;;;;13.43;6.40;;;;;;;18.21;73.51;100493.00;5074111;28;20053;-60
2021/08/05 05:30:23;;;;;;;10.95;6.78;;;;;;;18.28;73.18;100504.31;5074180;28;20033;-61
2021/08/05 05:32:51;;;;;;;14.57;6.53;;;;;;;18.36;73.05;100503.28;5073876;28;20044;-62
2021/08/05 05:35:19;;;;;;;10.85;6.18;;;;;;;18.36;73.25;100503.28;5039303;28;20620;-61
2021/08/05 05:37:49;;;;;;;13.05;6.70;;;;;;;18.33;73.36;100509.56;5055564;28;20052;-66
2021/08/05 05:40:17;;;;;;;11.75;6.65;;;;;;;18.38;73.61;100506.47;5077038;28;20043;-67
2021/08/05 05:42:44;;;;;;;9.68;6.30;;;;;;;18.44;73.41;100502.25;5094114;28;20059;-66
2021/08/05 05:45:13;;;;;;;9.98;6.30;;;;;;;18.46;74.20;100503.47;5065047;28;20041;-66
2021/08/05 05:47:41;;;;;;;10.50;6.85;;;;;;;18.55;73.35;100508.84;5073728;28;20391;-68
2021/08/05 05:50:11;;;;;;;13.82;6.55;;;;;;;18.67;73.07;100508.66;5073431;28;20045;-67
2021/08/05 05:52:39;;;;;;;10.10;5.97;;;;;;;18.72;72.70;100508.31;5073436;28;20045;-67
2021/08/05 05:55:07;;;;;;;11.13;6.20;;;;;;;18.52;73.29;100512.34;5073004;28;20063;-66
2021/08/05 05:57:35;;;;;;;10.18;6.05;;;;;;;18.81;72.07;100511.69;5086101;28;20040;-60
2021/08/05 06:00:03;;;;;;;12.25;6.63;;;;;;;18.74;72.62;100512.34;5093655;28;20067;-66
2021/08/05 06:02:37;;;;;;;10.73;6.60;;;;;;;18.67;72.19;100517.81;5075231;28;20059;-66
2021/08/05 06:05:06;;;;;;;8.75;6.40;;;;;;;18.58;72.51;100514.47;5075297;28;20114;-66
2021/08/05 06:07:47;;;;;;;10.73;6.35;;;;;;;18.44;72.96;100521.78;5093276;28;20048;-66
2021/08/05 06:10:18;;;;;;;10.73;6.18;;;;;;;18.43;73.69;100523.75;5082275;28;20406;-67
2021/08/05 06:12:46;;;;;;;;;;;;;;;18.60;73.04;100522.47;5088656;28;20052;-67
2021/08/05 06:15:14;;;;;;;9.98;6.47;;;;;;;18.59;72.88;100521.66;5087104;28;19919;-67
2021/08/05 06:17:41;;;;;;;15.73;7.20;;;;;;;18.66;72.50;100527.34;5093288;28;20052;-66
2021/08/05 06:20:12;;;;;;;11.40;7.07;;;;;;;18.49;73.22;100527.84;5093401;28;20048;-67
2021/08/05 06:22:40;;;;;;;11.73;6.82;;;;;;;18.70;72.48;100533.81;5068351;28;20040;-66
2021/08/05 06:25:08;;;;;;;10.07;6.55;;;;;;;18.47;72.79;100532.19;5086569;28;20044;-67
2021/08/05 06:27:36;;;;;;;12.85;7.18;;;;;;;18.25;74.11;100530.97;5084451;28;20102;-67
2021/08/05 06:30:06;;;;;;;10.82;5.82;;;;;;;18.43;75.21;100528.53;5092884;28;20502;-67
2021/08/05 06:32:33;;;;;;;9.57;6.63;;;;;;;18.66;72.85;100529.34;5085255;28;20415;-66
2021/08/05 06:35:01;;;;;;;13.48;6.95;;;;;;;18.50;73.23;100528.63;5089731;28;20055;-66
2021/08/05 06:37:28;;;;;;;11.68;6.50;;;;;;;18.41;74.23;100522.53;5088929;28;20052;-66
2021/08/05 06:39:55;;;;;;;11.45;6.78;;;;;;;18.14;75.48;100526.34;5082414;28;20040;-66
2021/08/05 06:42:23;;;;;;;11.55;6.53;;;;;;;18.28;74.71;100524.63;5075544;28;20047;-61
2021/08/05 06:44:50;;;;;;;12.50;7.20;;;;;;;18.10;74.69;100522.69;5092420;28;20451;-61
2021/08/05 06:47:18;;;;;;;13.07;7.75;;;;;;;18.50;73.89;100528.63;5092719;28;20054;-60
2021/08/05 06:49:45;;;;;;;13.00;6.68;;;;;;;18.53;73.37;100517.53;5091988;28;20036;-60
2021/08/05 06:52:12;;;;;;;12.43;7.10;;;;;;;18.63;72.54;100516.13;5092574;28;20055;-61
2021/08/05 06:54:39;;;;;;;10.45;6.93;;;;;;;18.64;72.75;100515.75;5091847;28;20052;-62
2021/08/05 06:57:06;;;;;;;11.90;7.03;;;;;;;18.77;72.29;100510.81;5090338;28;20071;-62
2021/08/05 06:59:34;;;;;;;12.68;6.88;;;;;;;19.09;71.22;100512.09;5072147;28;20051;-64
2021/08/05 07:02:04;;;;;;;10.25;6.75;;;;;;;19.21;70.12;100514.72;5091643;28;20048;-64
2021/08/05 07:04:32;;;;;;;13.55;7.05;;;;;;;19.00;70.89;100517.16;5064411;28;20059;-63
2021/08/05 07:06:59;;;;;;;13.18;7.50;;;;;;;19.34;69.73;100518.91;5089320;28;20095;-62
2021/08/05 07:09:27;;;;;;;12.35;6.97;;;;;;;19.41;68.84;100516.22;5072597;28;20422;-62
2021/08/05 07:11:54;;;;;;;10.40;7.32;;;;;;;19.36;69.44;100516.56;5076358;28;20055;-62
2021/08/05 07:14:21;;;;;;;9.07;6.55;;;;;;;19.34;68.87;100516.13;5077583;28;20040;-62
2021/08/05 07:16:49;;;;;;;11.40;7.22;;;;;;;19.32;68.83;100518.47;5096257;28;20052;-62
2021/08/05 07:19:16;;;;;;;13.15;7.43;;;;;;;19.31;68.43;100516.06;5095993;28;20047;-62
2021/08/05 07:21:43;;;;;;;13.20;7.53;;;;;;;19.66;68.00;100509.00;5095468;28;20052;-62
2021/08/05 07:24:12;;;;;;;11.25;8.63;;;;;;;19.49;67.47;100517.13;5096555;28;20048;-62
2021/08/05 07:26:40;;;;;;;14.45;8.55;;;;;;;19.48;67.71;100516.31;5096298;28;20122;-63
2021/08/05 07:29:08;;;;;;;10.77;7.60;;;;;;;19.68;67.31;100528.19;5096249;28;20051;-62
2021/08/05 07:31:36;;;;;;;10.70;7.35;;;;;;;19.78;67.24;100516.31;5089013;28;20055;-61
2021/08/05 07:34:04;;;;;;;12.18;7.28;;;;;;;19.59;68.13;100524.84;5095687;28;20088;-62
2021/08/05 07:36:31;;;;;;;13.80;7.82;;;;;;;19.75;67.59;100523.47;5060696;28;20051;-63
2021/08/05 07:38:58;;;;;;;11.40;6.75;;;;;;;19.66;68.39;100517.38;5095041;28;20074;-62
2021/08/05 07:41:26;;;;;;;11.55;7.45;;;;;;;19.86;67.63;100520.81;5078067;28;20047;-66
2021/08/05 07:43:53;;;;;;;10.55;7.10;;;;;;;20.24;67.07;100519.72;5096163;28;20150;-67
2021/08/05 07:46:20;;;;;;;10.68;7.53;;;;;;;20.29;66.83;100516.56;5077816;28;20047;-67
2021/08/05 07:48:47;;;;;;;13.98;7.30;;;;;;;20.39;65.92;100519.47;5077263;28;20039;-67
2021/08/05 07:51:15;;;;;;;11.93;6.82;;;;;;;20.46;65.25;100518.72;5095294;28;20047;-62
2021/08/05 07:53:42;;;;;;;11.25;6.75;;;;;;;20.44;64.96;100515.50;5095476;28;20048;-62
2021/08/05 07:56:09;;;;;;;12.52;7.35;;;;;;;19.96;65.97;100514.56;5095407;28;20059;-63
2021/08/05 07:58:37;;;;;;;12.57;7.30;;;;;;;20.47;64.59;100514.75;5095488;28;20043;-67
2021/08/05 08:01:05;;;;;;;13.90;6.68;;;;;;;20.39;65.20;100513.88;5076873;28;20498;-67
2021/08/05 08:03:32;;;;;;;11.82;7.88;;;;;;;20.42;64.24;100509.47;5060944;28;20044;-67
2021/08/05 08:06:00;;;;;;;13.93;7.38;;;;;;;20.40;64.98;100512.66;5076537;28;20052;-69
2021/08/05 08:08:27;;;;;;;12.40;7.50;;;;;;;20.56;64.20;100507.63;5095316;28;20054;-63
2021/08/05 08:10:55;;;;;;;8.65;5.10;;;;;;;21.88;61.72;100499.81;5095895;28;20495;-58
2021/08/05 08:13:28;;;;;;;10.82;5.57;;;;;;;22.84;57.69;100493.22;5078074;28;20055;-41
2021/08/05 08:15:56;;;;;;;11.93;5.28;;;;;;;23.19;56.74;100490.34;5061054;28;20051;-41
2021/08/05 08:18:23;;;;;;;9.13;5.38;;;;;;;23.29;56.10;100490.34;5077090;28;20052;-41
2021/08/05 08:20:56;;;;;;;8.82;4.90;;;;;;;23.38;56.48;100484.31;5077181;28;20062;-41
2021/08/05 08:23:24;;;;;;;20.95;4.93;;;;;;;23.40;56.79;100481.91;5094588;28;20055;-43
2021/08/05 08:25:51;;;;;;;9.00;5.03;;;;;;;23.35;57.52;100480.31;5095081;28;20157;-41
2021/08/05 08:28:18;;;;;;;13.15;4.80;;;;;;;23.43;57.48;100478.31;5094568;28;20048;-47
2021/08/05 08:30:45;;;;;;;11.63;5.20;;;;;;;23.44;56.22;100468.66;5095290;28;20044;-47
2021/08/05 08:33:13;;;;;;;12.52;5.15;;;;;;;23.33;56.17;100465.84;5095302;28;20063;-48
2021/08/05 08:35:40;;;;;;;11.05;4.70;;;;;;;23.25;56.24;100467.06;5094527;28;20040;-47
2021/08/05 08:38:07;;;;;;;11.45;5.57;;;;;;;23.25;55.90;100469.88;5094916;28;20051;-48
2021/08/05 08:40:34;;;;;;;17.25;4.78;;;;;;;23.38;55.32;100465.44;5094482;28;20044;-46
2021/08/05 08:43:04;;;;;;;10.50;4.80;;;;;;;23.46;55.09;100466.22;5090282;28;20037;-40
2021/08/05 08:45:36;;;;;;;11.43;4.75;;;;;;;23.59;54.80;100470.19;5095102;28;20052;-40
2021/08/05 08:48:04;;;;;;;10.52;4.88;;;;;;;23.63;53.71;100470.19;5090391;28;20614;-40
2021/08/05 08:50:33;;;;;;;14.90;4.28;;;;;;;23.51;54.55;100460.19;5093269;28;20040;-46
2021/08/05 08:53:08;;;;;;;8.82;4.85;;;;;;;23.52;53.71;100466.63;5082432;28;20048;-48
2021/08/05 08:55:37;;;;;;;10.75;4.38;;;;;;;23.53;55.07;100466.22;5094068;28;20047;-47
2021/08/05 08:58:05;;;;;;;12.45;4.82;;;;;;;23.61;55.33;100464.97;5076567;28;20406;-47
2021/08/05 09:00:36;;;;;;;8.35;4.75;;;;;;;23.64;55.17;100458.53;5094709;28;20036;-48
2021/08/05 09:03:07;;;;;;;9.50;5.05;;;;;;;23.74;54.67;100468.13;5091290;28;20055;-49
2021/08/05 09:05:35;;;;;;;13.57;4.85;;;;;;;23.85;54.66;100466.09;5071027;28;20147;-46
2021/08/05 09:08:03;;;;;;;12.32;5.15;;;;;;;23.90;53.95;100468.47;5092524;28;20059;-48
2021/08/05 09:10:32;;;;;;;11.23;4.50;;;;;;;23.95;53.71;100459.59;5093442;28;20048;-46
2021/08/05 09:13:01;;;;;;;13.90;5.47;;;;;;;23.95;53.19;100471.66;5093846;28;20052;-46
2021/08/05 09:15:43;;;;;;;11.98;5.85;;;;;;;23.99;53.39;100469.66;5094245;28;20048;-49
2021/08/05 09:18:38;;;;;;;14.20;5.70;;;;;;;24.03;52.97;100475.25;5075111;28;20051;-47
2021/08/05 09:21:24;;;;;;;14.55;6.22;;;;;;;23.99;52.78;100471.66;5093694;28;20067;-46
2021/08/05 09:23:51;;;;;;;11.25;5.38;;;;;;;23.93;52.75;100465.66;5085486;28;20491;-48
2021/08/05 09:26:40;;;;;;;10.00;5.40;;;;;;;23.96;52.73;100467.63;5093684;28;20607;-45
2021/08/05 09:29:23;;;;;;;7.45;5.07;;;;;;;23.97;52.01;100466.41;5085298;28;20040;-45
2021/08/05 09:31:50;;;;;;;8.82;5.43;;;;;;;24.01;51.59;100464.41;5075474;28;20055;-46
2021/08/05 09:34:20;;;;;;;9.38;4.70;;;;;;;23.91;51.65;100456.81;5074811;28;20044;-47
2021/08/05 09:36:50;;;;;;;12.50;4.90;;;;;;;23.97;51.37;100465.63;5074625;28;20493;-47
2021/08/05 09:39:17;;;;;;;9.10;4.55;;;;;;;23.95;51.06;100466.03;5094003;28;20048;-48
2021/08/05 09:42:01;;;;;;;9.30;4.80;;;;;;;23.94;50.64;100457.97;5093109;28;20052;-49
2021/08/05 09:44:38;;;;;;;11.68;4.28;;;;;;;23.91;50.58;100468.06;5074295;28;20052;-48
2021/08/05 09:47:06;;;;;;;9.68;5.13;;;;;;;23.86;50.50;100451.59;5092371;28;20051;-47
2021/08/05 09:49:34;;;;;;;8.85;4.93;;;;;;;23.81;50.63;100446.41;5093488;28;20051;-49
2021/08/05 09:52:06;;;;;;;10.23;4.63;;;;;;;23.81;50.36;100446.41;5092608;28;20055;-48
2021/08/05 09:54:41;;;;;;;6.85;4.38;;;;;;;23.82;50.16;100450.00;5093023;28;20127;-46
2021/08/05 09:57:10;;;;;;;8.02;4.03;;;;;;;23.87;49.85;100439.13;5093831;28;20059;-47
2021/08/05 09:59:51;;;;;;;8.18;4.55;;;;;;;23.90;49.44;100441.13;5093559;28;20055;-48
2021/08/05 10:02:19;;;;;;;11.35;4.30;;;;;;;23.88;49.35;100437.94;5074021;28;20116;-49
2021/08/05 10:04:48;;;;;;;8.77;3.95;;;;;;;23.93;49.46;100440.31;5093106;28;20059;-51
2021/08/05 10:07:15;;;;;;;7.10;4.15;;;;;;;23.98;48.91;100428.63;5093816;28;20056;-46
2021/08/05 10:09:44;;;;;;;9.73;4.78;;;;;;;23.86;49.31;100431.91;5092860;28;20055;-49
2021/08/05 10:12:24;;;;;;;9.75;4.20;;;;;;;24.13;48.56;100432.19;5092951;28;20043;-50
2021/08/05 10:15:13;;;;;;;8.30;4.07;;;;;;;24.00;48.53;100436.69;5073152;28;20049;-47
2021/08/05 10:17:41;;;;;;;9.43;4.53;;;;;;;23.92;48.81;100423.84;5089725;28;20055;-47
2021/08/05 10:20:13;;;;;;;7.85;3.45;;;;;;;23.98;48.89;100423.00;5093698;28;20052;-52
2021/08/05 10:22:41;;;;;;;7.13;4.15;;;;;;;24.07;48.68;100414.94;5075019;28;20060;-47
2021/08/05 10:25:11;;;;;;;6.13;3.92;;;;;;;24.05;48.58;100406.09;5085190;28;20044;-48
2021/08/05 10:27:38;;;;;;;;;;;;;;;23.90;48.72;100418.59;5094370;28;20074;-51
2021/08/05 10:30:10;;;;;;;8.07;4.95;;;;;;;23.86;49.20;100402.97;5093482;28;20244;-48
2021/08/05 10:32:39;;;;;;;8.73;4.75;;;;;;;23.83;49.35;100404.63;5074413;28;20074;-47
2021/08/05 10:35:08;;;;;;;6.65;4.65;;;;;;;23.86;48.94;100400.16;5042162;28;20079;-46
2021/08/05 10:37:36;;;;;;;8.00;4.97;;;;;;;24.03;48.66;100399.28;5093488;28;20535;-49
2021/08/05 10:40:06;;;;;;;8.43;5.57;;;;;;;24.08;47.99;100396.84;5093458;28;20475;-47
2021/08/05 10:42:34;;;;;;;10.50;7.38;;;;;;;24.16;47.36;100392.78;5093216;28;20044;-47
2021/08/05 10:45:02;;;;;;;9.15;5.50;;;;;;;23.99;48.66;100388.03;5093368;28;20391;-47
2021/08/05 10:47:31;;;;;;;12.23;7.13;;;;;;;23.70;47.95;100391.41;5095824;28;20067;-48
2021/08/05 10:50:02;;;;;;;13.13;8.35;;;;;;;23.54;49.25;100382.66;5062697;28;20063;-46
2021/08/05 10:52:36;;;;;;;19.13;10.25;;;;;;;23.61;49.03;100383.41;5097243;28;20048;-47
2021/08/05 10:55:15;;;;;;;13.70;7.88;;;;;;;23.60;48.62;100392.25;5097584;28;20047;-55
2021/08/05 10:58:13;;;;;;;14.17;8.83;;;;;;;23.76;48.15;100375.72;5078321;28;20060;-46
2021/08/05 11:00:49;;;;;;;10.70;7.28;;;;;;;23.63;48.07;100380.19;5058413;28;20306;-48
2021/08/05 11:03:38;;;;;;;11.05;7.80;;;;;;;23.68;48.09;100372.13;5076938;28;20047;-46
2021/08/05 11:06:09;;;;;;;10.30;7.28;;;;;;;23.79;47.89;100372.06;5090761;28;20059;-48
2021/08/05 11:08:36;;;;;;;11.80;6.97;;;;;;;23.82;47.68;100366.41;5079113;28;20047;-49
2021/08/05 11:11:22;;;;;;;8.60;4.90;;;;;;;23.92;47.32;100362.72;5078661;28;20043;-48
2021/08/05 11:14:09;;;;;;;13.02;5.80;;;;;;;23.90;47.24;100353.91;5095467;28;20047;-49
2021/08/05 11:16:52;;;;;;;8.70;4.63;;;;;;;23.98;46.97;100349.84;5064331;28;20056;-50
2021/08/05 11:19:24;;;;;;;8.45;5.07;;;;;;;24.16;46.66;100349.75;5086138;28;20063;-50
2021/08/05 11:21:51;;;;;;;8.20;4.70;;;;;;;24.04;46.95;100342.59;5077991;28;20399;-49
2021/08/05 11:24:43;;;;;;;9.27;4.35;;;;;;;24.13;46.92;100342.91;5096021;28;20064;-48
2021/08/05 11:27:17;;;;;;;10.93;8.35;;;;;;;24.30;46.15;100341.97;5092843;28;20075;-48
2021/08/05 11:29:45;;;;;;;8.20;5.28;;;;;;;24.48;45.84;100337.00;5095907;28;20074;-48
2021/08/05 11:32:22;;;;;;;6.85;3.92;;;;;;;24.44;45.90;100330.59;5077626;28;20048;-53
2021/08/05 11:35:01;;;;;;;7.47;4.70;;;;;;;24.40;45.88;100335.47;5087167;28;20051;-47